Flight Track Log - Related Links

Times and Time Zones

All times are in EDT time to prevent confusion due to time zone crossing. See the UAL252 flight status page for this flight to view local times or setup timezone preferences in your user account.

Time Position Orientation Groundspeed Altitude Reporting Facility
EDT Latitude Longitude Course Direction KTS MPH feet Rate Location/Type
Sun 03:31:26 PM 24.9925 -77.4136 25° Northeast 457 526 2,100  Level Miami Center
Sun 03:32:26 PM 25.0031 -77.3519 79° East 267 307 4,000 2,350 Climbing Miami Center
Sun 03:33:00 PM 25.3391 -77.2881 29° Northeast  Level FlightAware
Sun 03:33:26 PM 25.0744 -77.3200 22° Northeast 193 222 6,800  Level Miami Center
Sun 03:34:00 PM 25.4373 -77.2252 31° Northeast  Level FlightAware
Sun 03:34:26 PM 25.1517 -77.2881 21° North 235 270 9,300  Level Miami Center
Sun 03:35:00 PM 25.5399 -77.1717 24° Northeast  Level FlightAware
Sun 03:35:26 PM 25.2375 -77.2517 21° North 273 314 11,000  Level Miami Center
Sun 03:36:00 PM 25.6427 -77.1182 25° Northeast  Level FlightAware
Sun 03:36:27 PM 25.3358 -77.2083 22° Northeast 335 386 12,300  Level Miami Center
Sun 03:37:26 PM 25.4447 -77.1603 22° Northeast 383 441 14,900 2,800 Climbing Miami Center
Sun 03:38:27 PM 25.5575 -77.1122 21° North 411 473 17,900 2,900 Climbing Miami Center
Sun 03:39:26 PM 25.6725 -77.0594 22° Northeast 430 495 20,700 2,521 Climbing Miami Center
Sun 03:40:26 PM 25.7939 -77.0064 21° North 450 518 22,900 2,250 Climbing Miami Center
Sun 03:41:26 PM 25.9172 -76.9533 21° North 461 531 25,200 2,000 Climbing Miami Center
Sun 03:42:26 PM 26.0406 -76.9003 21° North 466 536 26,900 1,190 Climbing Miami Center
Sun 03:43:27 PM 26.1597 -76.8447 23° Northeast 466 536 27,600 800 Climbing Miami Center
Sun 03:44:26 PM 26.2892 -76.7961 19° North 471 542 28,500 1,000 Climbing Miami Center
Sun 03:45:27 PM 26.4144 -76.7542 17° North 466 536 29,600 1,150 Climbing Miami Center
Sun 03:46:26 PM 26.5439 -76.7239 12° North 472 543 30,800 706 Climbing Miami Center
Sun 03:47:26 PM 26.6672 -76.6983 10° North 459 528 31,000 99 Climbing Miami Center
Sun 03:48:27 PM 26.7967 -76.7097 356° North 459 528 31,000 950 Level Miami Center
Sun 03:49:26 PM 26.9222 -76.7375 349° North 465 535 32,900 1,200 Climbing Miami Center
Sun 03:50:27 PM 27.0286 -76.7561 351° North 455 524 33,400 744 Climbing Miami Center
Sun 03:51:27 PM 27.1497 -76.7769 351° North 443 510 34,400 800 Climbing Miami Center
Sun 03:52:27 PM 27.2711 -76.7956 352° North 443 510 35,000 300 Climbing Miami Center
Sun 03:53:27 PM 27.3942 -76.8258 348° North 443 510 35,000  Level Miami Center
Sun 03:54:27 PM 27.5133 -76.8422 353° North 443 510 35,000  Level Miami Center
Sun 03:55:27 PM 27.6344 -76.8656 350° North 443 510 35,000  Level Miami Center
Sun 03:56:26 PM 27.7556 -76.8961 347° North 443 510 35,000  Level Miami Center
Sun 03:57:27 PM 27.8767 -76.9197 350° North 443 510 35,000  Level Miami Center
Sun 03:59:26 PM 28.1208 -76.9575 352° North 443 510 35,000  Level Miami Center
Sun 04:00:27 PM 28.2586 -76.9928 347° North 448 516 35,000  Level Miami Center
Sun 04:01:27 PM 28.3819 -77.0167 350° North 448 516 35,000  Level Miami Center
Sun 04:02:27 PM 28.4925 -77.0356 351° North 441 507 35,000 -50 Level Miami Center
Sun 04:03:26 PM 28.6239 -77.0619 350° North 441 507 34,900  Descending Miami Center
Sun 04:04:27 PM 28.7367 -77.0858 349° North 441 507 35,000 50 Climbing Miami Center
Sun 04:05:27 PM 28.8639 -77.1097 351° North 441 507 35,000 -50 Level Miami Center
Sun 04:06:26 PM 28.9786 -77.1336 350° North 430 495 34,900  Descending Miami Center
Sun 04:07:26 PM 29.1017 -77.1603 349° North 434 499 35,000 31 Climbing Miami Center
Sun 04:09:41 PM 29.3528 -77.2042 351° North 434 499 35,000  Level Jacksonville Center
Sun 04:10:41 PM 29.4708 -77.2281 350° North 425 489 35,000  Level Jacksonville Center
Sun 04:11:41 PM 29.5928 -77.2522 350° North 436 502 35,000  Level Jacksonville Center
Sun 04:12:41 PM 29.7131 -77.2786 349° North 430 495 35,000 -50 Level Jacksonville Center
Sun 04:13:41 PM 29.8267 -77.2983 351° North 422 486 34,900 -50 Descending Jacksonville Center
Sun 04:14:41 PM 29.9403 -77.3206 350° North 421 484 34,900 50 Level Jacksonville Center
Sun 04:15:41 PM 30.0692 -77.3564 346° North 416 479 35,000  Climbing Jacksonville Center
Sun 04:16:41 PM 30.1875 -77.3447 North 412 474 34,900  Descending Jacksonville Center
Sun 04:17:41 PM 30.3033 -77.3692 350° North 426 490 35,000 50 Climbing Jacksonville Center
Sun 04:18:41 PM 30.4197 -77.4036 346° North 426 490 35,000  Level Jacksonville Center
Sun 04:19:41 PM 30.5339 -77.4403 345° North 432 497 35,000  Level Jacksonville Center
Sun 04:20:41 PM 30.6494 -77.4553 354° North 420 483 35,000 -50 Level Jacksonville Center
Sun 04:21:41 PM 30.7653 -77.4825 349° North 405 466 34,900  Descending Jacksonville Center
Sun 04:22:41 PM 30.8808 -77.5025 352° North 416 479 35,000 50 Climbing Jacksonville Center
Sun 04:23:41 PM 30.9967 -77.5225 352° North 422 486 35,000  Level Jacksonville Center
Sun 04:24:41 PM 31.1108 -77.5597 344° North 414 476 35,000  Level Jacksonville Center
Sun 04:25:41 PM 31.2261 -77.5728 354° North 414 476 35,000  Level Jacksonville Center
Sun 04:26:41 PM 31.3419 -77.5978 350° North 414 476 35,000 -50 Level Jacksonville Center
Sun 04:27:41 PM 31.4581 -77.6300 347° North 423 487 34,900 -50 Descending Jacksonville Center
Sun 04:28:41 PM 31.5739 -77.6553 349° North 413 475 34,900 50 Level Jacksonville Center
Sun 04:29:41 PM 31.6897 -77.6756 352° North 419 482 35,000 650 Climbing Jacksonville Center
Sun 04:30:41 PM 31.8033 -77.7008 349° North 414 476 36,200 1,000 Climbing Jacksonville Center
Sun 04:31:41 PM 31.9153 -77.7289 348° North 414 476 37,000 400 Climbing Jacksonville Center
Sun 04:32:41 PM 32.0244 -77.7494 351° North 407 468 37,000  Level Jacksonville Center
Sun 04:33:41 PM 32.1339 -77.7706 351° North 402 463 37,000  Level Jacksonville Center
Sun 04:34:41 PM 32.2433 -77.7939 350° North 397 457 37,000  Level Jacksonville Center
Sun 04:35:41 PM 32.3508 -77.8172 350° North 392 451 37,000 -50 Level Jacksonville Center
Sun 04:36:41 PM 32.4603 -77.8383 351° North 392 451 36,900 -50 Descending Jacksonville Center
Sun 04:37:41 PM 32.5656 -77.8644 348° North 392 451 36,900  Level Jacksonville Center
Sun 04:38:41 PM 32.6750 -77.8903 349° North 392 451 36,900 50 Level Jacksonville Center
Sun 04:39:41 PM 32.7764 -77.9169 348° North 387 445 37,000  Climbing Jacksonville Center
Sun 04:40:41 PM 32.8750 -77.9336 352° North 375 432 36,900 -50 Descending Jacksonville Center
Sun 04:41:41 PM 32.9761 -77.9528 351° North 370 426 36,900  Level Jacksonville Center
Sun 04:42:41 PM 33.0731 -77.9772 348° North 365 420 36,900  Level Jacksonville Center
Sun 04:43:41 PM 33.1739 -77.9967 351° North 359 413 36,900 36 Level Jacksonville Center
Sun 04:45:30 PM 33.3522 -78.0353 350° North 355 409 37,000 35 Climbing Washington Center
Sun 04:46:31 PM 33.4539 -78.0531 352° North 355 409 37,000  Level Washington Center
Sun 04:47:30 PM 33.5600 -78.0736 351° North 368 423 37,000  Level Washington Center
Sun 04:48:30 PM 33.6686 -78.0644 North 378 435 37,000 -50 Level Washington Center
Sun 04:49:31 PM 33.7756 -78.0350 13° North 385 443 36,900  Descending Washington Center
Sun 04:50:32 PM 33.8867 -78.0058 12° North 390 449 37,000 50 Climbing Washington Center
Sun 04:51:30 PM 33.9894 -77.9739 14° North 408 470 37,000  Level Washington Center
Sun 04:52:30 PM 34.1008 -77.9444 12° North 408 470 37,000  Level Washington Center
Sun 04:53:29 PM 34.2119 -77.9150 12° North 408 470 37,000  Level Washington Center
Sun 04:54:29 PM 34.3292 -77.8856 12° North 417 480 37,000  Level Washington Center
Sun 04:55:30 PM 34.4422 -77.8761 North 417 480 37,000  Level Washington Center
Sun 04:56:31 PM 34.5547 -77.8742 North 411 473 37,000  Level Washington Center
Sun 04:57:29 PM 34.6675 -77.8747 360° North 405 466 37,000 -50 Level Washington Center
Sun 04:58:30 PM 34.7803 -77.8728 North 405 466 36,900  Descending Washington Center
Sun 04:59:31 PM 34.8908 -77.8658 North 405 466 37,000 50 Climbing Washington Center
Sun 05:00:31 PM 35.0058 -77.8642 North 405 466 37,000  Level Washington Center
Sun 05:01:29 PM 35.1183 -77.8622 North 405 466 37,000  Level Washington Center
Sun 05:02:29 PM 35.2311 -77.8603 North 405 466 37,000  Level Washington Center
Sun 05:03:30 PM 35.3458 -77.8583 North 405 466 37,000  Level Washington Center
Sun 05:04:30 PM 35.4586 -77.8564 North 405 466 37,000  Level Washington Center
Sun 05:05:31 PM 35.5733 -77.8547 North 405 466 37,000  Level Washington Center
Sun 05:06:29 PM 35.6861 -77.8553 360° North 405 466 37,000  Level Washington Center
Sun 05:07:30 PM 35.7947 -77.8558 360° North 400 460 37,000  Level Washington Center
Sun 05:08:30 PM 35.9031 -77.8511 North 395 455 37,000  Level Washington Center
Sun 05:09:31 PM 36.0158 -77.8519 360° North 395 455 37,000  Level Washington Center
Sun 05:10:31 PM 36.1244 -77.8497 North 395 455 37,000  Level Washington Center
Sun 05:11:31 PM 36.2350 -77.8478 North 395 455 37,000  Level Washington Center
Sun 05:12:29 PM 36.3414 -77.8456 North 390 449 37,000  Level Washington Center
Sun 05:13:31 PM 36.4478 -77.8461 360° North 382 440 37,000  Level Washington Center
Sun 05:14:31 PM 36.5564 -77.8442 North 382 440 37,000  Level Washington Center
Sun 05:15:29 PM 36.6669 -77.8447 360° North 388 447 37,000  Level Washington Center
Sun 05:16:31 PM 36.7756 -77.8400 North 388 447 37,000  Level Washington Center
Sun 05:17:31 PM 36.8842 -77.8381 North 383 441 37,000  Level Washington Center
Sun 05:18:31 PM 36.9933 -77.7892 20° North 395 455 37,000  Level Washington Center
Sun 05:19:31 PM 37.1011 -77.7247 25° Northeast 406 467 37,000  Level Washington Center
Sun 05:20:31 PM 37.2086 -77.6597 26° Northeast 420 483 37,000  Level Washington Center
Sun 05:21:29 PM 37.3161 -77.5947 26° Northeast 425 489 37,000  Level Washington Center
Sun 05:22:29 PM 37.4233 -77.5322 25° Northeast 425 489 37,000  Level Washington Center
Sun 05:23:30 PM 37.5308 -77.4669 26° Northeast 425 489 37,000  Level Washington Center
Sun 05:24:31 PM 37.6383 -77.4014 26° Northeast 425 489 37,000  Level Washington Center
Sun 05:25:31 PM 37.7433 -77.3356 26° Northeast 425 489 37,000  Level Washington Center
Sun 05:26:31 PM 37.8550 -77.2697 25° Northeast 425 489 37,000  Level Washington Center
Sun 05:27:29 PM 37.9644 -77.2011 26° Northeast 425 489 37,000  Level Washington Center
Sun 05:28:30 PM 38.0758 -77.1347 25° Northeast 425 489 37,000  Level Washington Center
Sun 05:29:30 PM 38.1872 -77.0658 26° Northeast 431 496 37,000  Level Washington Center
Sun 05:30:30 PM 38.2942 -76.9992 26° Northeast 431 496 37,000  Level Washington Center
Sun 05:31:31 PM 38.4033 -76.9322 26° Northeast 426 490 37,000  Level Washington Center
Sun 05:32:29 PM 38.5125 -76.8625 27° Northeast 426 490 37,000  Level Washington Center
Sun 05:33:30 PM 38.6239 -76.7956 25° Northeast 426 490 37,000  Level Washington Center
Sun 05:34:31 PM 38.7331 -76.7119 31° Northeast 437 503 37,000  Level Washington Center
Sun 05:35:31 PM 38.8278 -76.6069 41° Northeast 448 516 37,000  Level Washington Center
Sun 05:36:29 PM 38.9244 -76.4936 42° Northeast 454 522 37,000 -504 Level Washington Center
Sun 05:37:30 PM 39.0211 -76.3797 42° Northeast 459 528 36,000 -1,918 Descending Washington Center
Sun 05:38:31 PM 39.1178 -76.2683 42° Northeast 464 534 33,100 -2,508 Descending Washington Center
Sun 05:39:32 PM 39.2267 -76.1436 42° Northeast 471 542 30,900 -1,916 Descending Washington Center
Sun 05:40:30 PM 39.3253 -76.0261 43° Northeast 476 548 29,300 -2,017 Descending Washington Center
Sun 05:41:31 PM 39.4214 -75.9167 41° Northeast 469 540 26,900 -2,361 Descending Washington Center
Sun 05:42:32 PM 39.5114 -75.8094 43° Northeast 455 524 24,500 -2,441 Descending Washington Center
Sun 05:43:29 PM 39.5989 -75.7047 43° Northeast 442 509 22,100 -2,390 Descending Washington Center
Sun 05:44:30 PM 39.6844 -75.6022 43° Northeast 424 488 19,800 -1,934 Descending Washington Center
Sun 05:45:30 PM 39.7656 -75.5025 43° Northeast 413 475 18,200 -1,438 Descending Washington Center
Sun 05:46:31 PM 39.8383 -75.4158 42° Northeast 402 463 16,900 -1,462 Descending Washington Center
Sun 05:47:29 PM 39.9153 -75.3236 43° Northeast 388 447 15,300 -1,563 Descending Washington Center
Sun 05:48:30 PM 39.9900 -75.2342 43° Northeast 372 428 13,800 -1,488 Descending Washington Center
Sun 05:49:30 PM 40.0647 -75.1414 44° Northeast 372 428 12,300 -1,500 Descending Washington Center
Sun 05:50:30 PM 40.1353 -75.0542 43° Northeast 367 422 10,800 -1,114 Descending Washington Center
Sun 05:51:50 PM 40.2333 -74.9333 43° Northeast 314 361 9,700 -1,114 Descending New TRACON
Sun 05:52:50 PM 40.3000 -74.8500 44° Northeast 286 329 8,200 -850 Descending New TRACON
Sun 05:53:50 PM 40.3500 -74.7833 45° Northeast 275 316 8,000 -850 Descending New TRACON
Sun 05:54:50 PM 40.3667 -74.6833 78° East 287 330 6,500 -1,500 Descending New TRACON
Sun 05:55:50 PM 40.3667 -74.5667 90° East 284 327 5,000 -1,250 Descending New TRACON
Sun 05:56:50 PM 40.3833 -74.4833 75° East 275 316 4,000 -992 Descending New TRACON
Sun 05:57:51 PM 40.4167 -74.3833 66° East 268 308 3,000 -429 Descending New TRACON
Sun 05:58:56 PM 40.4667 -74.3167 45° Northeast 247 284 3,100 50 Climbing New TRACON
Sun 05:59:51 PM 40.5167 -74.2833 27° Northeast 186 214 3,100 -157 Level New TRACON
Sun 06:00:51 PM 40.5500 -74.2500 37° Northeast 177 204 2,800 -624 Descending New TRACON
Sun 06:01:56 PM 40.6000 -74.2167 27° Northeast 176 203 1,800 -900 Descending New TRACON
Sun 06:02:51 PM 40.6333 -74.2000 21° North 142 163 1,000 -873 Descending New TRACON

Login

Don't have an account? Register now (free) for customized features, flight alerts, and more!